createdAt,value
2022-10-05T00:02:04.739Z,100991.06
2022-10-05T00:04:34.243Z,100991.22
2022-10-05T00:07:12.187Z,100985.56
2022-10-05T00:09:41.642Z,100976.16
2022-10-05T00:12:17.908Z,100972.63
2022-10-05T00:14:47.836Z,100973.41
2022-10-05T00:17:18.846Z,100968.09
2022-10-05T00:19:52.184Z,100966.03
2022-10-05T00:22:25.078Z,100970.13
2022-10-05T00:25:00.716Z,100960.91
2022-10-05T00:27:34.116Z,100958.25
2022-10-05T00:30:05.487Z,100964.19
2022-10-05T00:32:34.988Z,100961.53
2022-10-05T00:35:04.462Z,100953.56
2022-10-05T00:37:36.513Z,100949.34
2022-10-05T00:40:06.087Z,100955.47
2022-10-05T00:42:41.118Z,100961.41
2022-10-05T00:45:12.183Z,100953.88
2022-10-05T00:47:44.209Z,100959.59
2022-10-05T00:50:25.448Z,100960.81
2022-10-05T00:52:57.551Z,100965.06
2022-10-05T00:55:30.795Z,100964.88
2022-10-05T00:58:06.885Z,100960.56
2022-10-05T01:00:37.369Z,100969.09
2022-10-05T01:03:09.102Z,100974.03
2022-10-05T01:05:50.037Z,100972.81
2022-10-05T01:08:27.836Z,100966.06
2022-10-05T01:11:01.551Z,100973.38
2022-10-05T01:13:33.925Z,100965.66
2022-10-05T01:16:06.987Z,100965.25
2022-10-05T01:18:40.822Z,100973.53
2022-10-05T01:21:14.204Z,100967.72
2022-10-05T01:24:06.535Z,100969.53
2022-10-05T01:26:52.275Z,100972.19
2022-10-05T01:29:25.372Z,100965.16
2022-10-05T01:31:57.758Z,100961.41
2022-10-05T01:34:30.066Z,100955.34
2022-10-05T01:37:01.644Z,100944.97
2022-10-05T01:39:32.990Z,100947.78
2022-10-05T01:42:05.126Z,100949.69
2022-10-05T01:44:40.508Z,100945.56
2022-10-05T01:47:10.661Z,100940.63
2022-10-05T01:49:41.337Z,100935.94
2022-10-05T01:52:19.684Z,100933.09
2022-10-05T01:54:55.463Z,100926.59
2022-10-05T01:57:28.593Z,100927.56
2022-10-05T02:00:07.690Z,100920.03
2022-10-05T02:02:38.692Z,100921.59
2022-10-05T02:05:10.503Z,100918.50
2022-10-05T02:07:41.810Z,100916.69
2022-10-05T02:10:16.657Z,100918.22
2022-10-05T02:12:46.130Z,100920.59
2022-10-05T02:15:20.265Z,100916.34
2022-10-05T02:17:51.161Z,100919.09
2022-10-05T02:20:23.636Z,100918.88
2022-10-05T02:22:55.541Z,100912.63
2022-10-05T02:25:26.178Z,100898.53
2022-10-05T02:27:56.594Z,100895.59
2022-10-05T02:30:28.666Z,100896.03
2022-10-05T02:32:59.367Z,100901.59
2022-10-05T02:35:28.861Z,100891.53
2022-10-05T02:38:04.558Z,100897.84
2022-10-05T02:40:42.862Z,100896.69
2022-10-05T02:43:19.387Z,100903.28
2022-10-05T02:45:55.428Z,100890.22
2022-10-05T02:48:31.149Z,100894.06
2022-10-05T02:51:04.026Z,100888.19
2022-10-05T02:53:37.086Z,100902.41
2022-10-05T02:56:11.736Z,100901.03
2022-10-05T02:58:44.007Z,100898.38
2022-10-05T03:01:19.530Z,100912.31
2022-10-05T03:03:52.391Z,100906.44
2022-10-05T03:06:23.529Z,100911.91
2022-10-05T03:08:53.944Z,100914.41
2022-10-05T03:11:26.906Z,100913.59
2022-10-05T03:14:01.258Z,100920.91
2022-10-05T03:16:38.873Z,100926.28
2022-10-05T03:19:16.379Z,100908.94
2022-10-05T03:21:58.125Z,100927.09
2022-10-05T03:24:52.955Z,100919.84
2022-10-05T03:27:28.946Z,100918.06
2022-10-05T03:30:00.766Z,100916.63
2022-10-05T03:32:35.163Z,100913.84
2022-10-05T03:35:07.912Z,100916.25
2022-10-05T03:37:40.278Z,100915.53
2022-10-05T03:40:11.683Z,100916.81
2022-10-05T03:42:45.048Z,100912.31
2022-10-05T03:45:21.171Z,100901.19
2022-10-05T03:48:01.015Z,100903.19
2022-10-05T03:50:36.144Z,100909.53
2022-10-05T03:53:06.709Z,100909.00
2022-10-05T03:55:38.652Z,100905.59
2022-10-05T03:58:10.107Z,100907.94
2022-10-05T04:00:39.583Z,100912.78
2022-10-05T04:03:14.019Z,100906.63
2022-10-05T04:05:46.277Z,100906.22
2022-10-05T04:08:19.626Z,100906.94
2022-10-05T04:10:51.062Z,100900.97
2022-10-05T04:13:23.538Z,100908.16
2022-10-05T04:15:55.263Z,100904.69
2022-10-05T04:18:29.017Z,100905.47
2022-10-05T04:21:00.244Z,100907.72
2022-10-05T04:23:36.272Z,100906.59
2022-10-05T04:26:07.817Z,100914.88
2022-10-05T04:28:42.500Z,100914.97
2022-10-05T04:31:13.942Z,100917.59
2022-10-05T04:33:46.025Z,100921.28
2022-10-05T04:36:18.652Z,100922.09
2022-10-05T04:38:52.335Z,100924.56
2022-10-05T04:41:37.564Z,100926.22
2022-10-05T04:44:16.158Z,100930.22
2022-10-05T04:46:55.303Z,100927.44
2022-10-05T04:49:38.517Z,100927.78
2022-10-05T04:52:11.023Z,100927.47
2022-10-05T04:54:47.710Z,100926.06
2022-10-05T04:57:19.364Z,100919.25
2022-10-05T05:00:01.027Z,100918.50
2022-10-05T05:02:38.028Z,100917.56
2022-10-05T05:05:26.016Z,100912.28
2022-10-05T05:07:58.287Z,100921.03
2022-10-05T05:10:47.977Z,100917.03
2022-10-05T05:13:32.659Z,100918.25
2022-10-05T05:16:04.047Z,100929.19
2022-10-05T05:18:54.793Z,100924.53
2022-10-05T05:21:34.166Z,100924.44
2022-10-05T05:24:08.239Z,100927.38
2022-10-05T05:26:43.322Z,100921.59
2022-10-05T05:29:16.923Z,100923.69
2022-10-05T05:31:48.608Z,100926.03
2022-10-05T05:34:28.875Z,100932.41
2022-10-05T05:37:02.539Z,100930.81
2022-10-05T05:39:32.688Z,100931.75
2022-10-05T05:42:03.854Z,100928.94
2022-10-05T05:44:38.535Z,100934.66
2022-10-05T05:47:14.066Z,100934.06
2022-10-05T05:49:53.908Z,100936.94
2022-10-05T05:52:28.449Z,100934.38
2022-10-05T05:54:59.577Z,100932.31
2022-10-05T05:57:30.108Z,100937.88
2022-10-05T06:00:06.765Z,100939.94
2022-10-05T06:02:41.079Z,100941.81
2022-10-05T06:05:24.664Z,100944.47
2022-10-05T06:07:56.831Z,100944.22
2022-10-05T06:10:29.473Z,100941.19
2022-10-05T06:13:01.745Z,100948.28
2022-10-05T06:15:33.632Z,100944.56
2022-10-05T06:18:05.326Z,100947.63
2022-10-05T06:20:38.320Z,100943.06
2022-10-05T06:23:17.163Z,100944.00
2022-10-05T06:25:52.930Z,100951.00
2022-10-05T06:28:22.505Z,100954.38
2022-10-05T06:30:56.554Z,100953.78
2022-10-05T06:33:31.282Z,100958.19
2022-10-05T06:36:07.965Z,100962.31
2022-10-05T06:38:56.555Z,100957.28
2022-10-05T06:41:29.355Z,100953.63
2022-10-05T06:44:00.581Z,100950.00
2022-10-05T06:46:32.922Z,100948.97
2022-10-05T06:49:11.892Z,100951.69
2022-10-05T06:51:43.877Z,100961.94
2022-10-05T06:54:31.512Z,100951.41
2022-10-05T06:57:04.496Z,100957.56
2022-10-05T06:59:35.837Z,100957.59
2022-10-05T07:02:08.875Z,100962.53
2022-10-05T07:04:43.554Z,100958.66
2022-10-05T07:07:17.239Z,100956.00
2022-10-05T07:09:55.244Z,100962.31
2022-10-05T07:12:37.475Z,100958.91
2022-10-05T07:15:18.149Z,100964.03
2022-10-05T07:17:52.975Z,100956.00
2022-10-05T07:20:25.696Z,100963.63
2022-10-05T07:23:20.258Z,100971.84
2022-10-05T07:25:53.141Z,100967.47
2022-10-05T07:28:28.394Z,100963.13
2022-10-05T07:30:59.309Z,100960.91
2022-10-05T07:33:31.007Z,100960.63
2022-10-05T07:36:15.403Z,100961.31
2022-10-05T07:38:47.944Z,100963.28
2022-10-05T07:41:23.006Z,100969.34
2022-10-05T07:44:05.780Z,100966.19
2022-10-05T07:46:44.336Z,100962.63
2022-10-05T07:49:18.923Z,100964.72
2022-10-05T07:51:49.012Z,100967.63
2022-10-05T07:54:21.201Z,100960.06
2022-10-05T07:56:56.198Z,100964.38
2022-10-05T07:59:29.924Z,100956.63
2022-10-05T08:02:04.561Z,100962.97
2022-10-05T08:04:41.606Z,100958.28
2022-10-05T08:07:13.820Z,100957.28
2022-10-05T08:09:45.520Z,100952.16
2022-10-05T08:12:36.849Z,100952.34
2022-10-05T08:15:07.147Z,100953.78
2022-10-05T08:17:42.623Z,100954.22
2022-10-05T08:20:34.461Z,100953.41
2022-10-05T08:23:05.103Z,100952.19
2022-10-05T08:25:41.601Z,100957.88
2022-10-05T08:28:17.304Z,100948.09
2022-10-05T08:30:54.524Z,100943.78
2022-10-05T08:33:23.994Z,100947.22
2022-10-05T08:35:55.864Z,100944.78
2022-10-05T08:38:27.908Z,100951.31
2022-10-05T08:41:29.245Z,100954.56
2022-10-05T08:44:28.599Z,100950.25
2022-10-05T08:47:09.997Z,100946.63
2022-10-05T08:50:04.109Z,100950.72
2022-10-05T08:52:34.009Z,100954.03
2022-10-05T08:55:32.509Z,100946.47
2022-10-05T08:58:44.478Z,100939.53
2022-10-05T09:01:21.806Z,100948.47
2022-10-05T09:04:10.290Z,100950.28
2022-10-05T09:07:06.839Z,100943.91
2022-10-05T09:10:10.762Z,100943.31
2022-10-05T09:12:53.267Z,100935.03
2022-10-05T09:15:37.135Z,100932.97
2022-10-05T09:18:39.083Z,100932.09
2022-10-05T09:21:16.346Z,100923.72
2022-10-05T09:23:46.399Z,100925.53
2022-10-05T09:26:46.317Z,100932.09
2022-10-05T09:29:41.281Z,100938.56
2022-10-05T09:32:21.667Z,100931.19
2022-10-05T09:35:12.487Z,100934.88
2022-10-05T09:38:13.949Z,100929.53
2022-10-05T09:41:28.081Z,100941.69
2022-10-05T09:44:22.062Z,100923.19
2022-10-05T09:47:21.625Z,100919.94
2022-10-05T09:50:15.799Z,100921.94
2022-10-05T09:53:10.534Z,100915.53
2022-10-05T09:56:10.051Z,100923.94
2022-10-05T09:59:07.455Z,100912.88
2022-10-05T10:01:52.385Z,100917.72
2022-10-05T10:04:29.220Z,100913.38
2022-10-05T10:07:30.287Z,100906.47
2022-10-05T10:10:31.610Z,100909.03
2022-10-05T10:13:06.926Z,100902.47
2022-10-05T10:16:00.202Z,100898.56
2022-10-05T10:18:52.370Z,100898.78
2022-10-05T10:21:45.559Z,100888.47
2022-10-05T10:24:28.912Z,100885.88
2022-10-05T10:27:08.059Z,100893.44
2022-10-05T10:30:07.422Z,100893.78
2022-10-05T10:32:55.101Z,100893.91
2022-10-05T10:38:38.788Z,100890.06
2022-10-05T10:41:27.630Z,100890.13
2022-10-05T10:44:32.402Z,100892.66
2022-10-05T10:47:35.362Z,100896.66
2022-10-05T10:50:26.302Z,100882.41
2022-10-05T10:53:04.394Z,100874.00
2022-10-05T10:55:37.708Z,100874.47
2022-10-05T10:58:32.100Z,100878.59
2022-10-05T11:01:06.640Z,100865.69
2022-10-05T11:03:49.439Z,100874.44
2022-10-05T11:06:40.250Z,100866.31
2022-10-05T11:09:34.746Z,100853.44
2022-10-05T11:12:18.113Z,100862.75
2022-10-05T11:15:38.102Z,100859.09
2022-10-05T11:18:20.418Z,100854.94
2022-10-05T11:21:04.390Z,100856.69
2022-10-05T11:24:03.835Z,100854.03
2022-10-05T11:27:03.311Z,100835.66
2022-10-05T11:29:48.646Z,100844.59
2022-10-05T11:32:36.363Z,100848.44
2022-10-05T11:35:47.332Z,100842.16
2022-10-05T11:38:30.410Z,100842.59
2022-10-05T11:41:31.353Z,100839.66
2022-10-05T11:44:12.275Z,100840.53
2022-10-05T11:46:44.605Z,100838.31
2022-10-05T11:49:35.415Z,100839.34
2022-10-05T11:52:13.965Z,100829.59
2022-10-05T11:55:09.758Z,100835.22
2022-10-05T11:57:41.212Z,100835.50
2022-10-05T12:00:16.462Z,100841.31
2022-10-05T12:03:09.361Z,100827.03
2022-10-05T12:05:42.526Z,100826.69
2022-10-05T12:08:23.577Z,100829.09
2022-10-05T12:10:57.815Z,100828.16
2022-10-05T12:13:33.289Z,100819.53
2022-10-05T12:16:05.483Z,100808.75
2022-10-05T12:18:51.303Z,100809.06
2022-10-05T12:21:27.637Z,100820.00
2022-10-05T12:24:01.139Z,100810.47
2022-10-05T12:26:32.441Z,100809.63
2022-10-05T12:29:04.826Z,100805.88
2022-10-05T12:31:40.268Z,100803.03
2022-10-05T12:34:15.642Z,100805.69
2022-10-05T12:37:03.725Z,100808.03
2022-10-05T12:39:41.829Z,100800.06
2022-10-05T12:42:18.707Z,100799.72
2022-10-05T12:45:03.854Z,100789.75
2022-10-05T12:47:37.055Z,100796.25
2022-10-05T12:50:13.781Z,100791.88
2022-10-05T12:52:50.041Z,100798.13
2022-10-05T12:55:26.344Z,100786.50
2022-10-05T12:58:01.470Z,100785.03
2022-10-05T13:00:31.178Z,100782.50
2022-10-05T13:03:02.297Z,100778.97
2022-10-05T13:05:32.869Z,100774.41
2022-10-05T13:08:18.913Z,100770.84
2022-10-05T13:10:52.053Z,100762.16
2022-10-05T13:13:33.675Z,100772.72
2022-10-05T13:16:07.827Z,100765.81
2022-10-05T13:18:49.330Z,100768.75
2022-10-05T13:21:20.647Z,100772.28
2022-10-05T13:23:57.637Z,100760.03
2022-10-05T13:26:31.866Z,100757.28
2022-10-05T13:29:02.254Z,100763.78
2022-10-05T13:31:32.723Z,100761.03
2022-10-05T13:34:10.460Z,100755.69
2022-10-05T13:36:45.169Z,100759.00
2022-10-05T13:39:23.782Z,100761.34
2022-10-05T13:41:57.693Z,100759.38
2022-10-05T13:44:28.779Z,100753.28
2022-10-05T13:46:59.068Z,100752.69
2022-10-05T13:49:32.085Z,100760.44
2022-10-05T13:52:07.687Z,100756.06
2022-10-05T13:54:40.803Z,100753.53
2022-10-05T13:57:21.237Z,100753.50
2022-10-05T13:59:56.072Z,100750.56
2022-10-05T14:02:27.841Z,100747.91
2022-10-05T14:05:01.299Z,100748.25
2022-10-05T14:07:34.378Z,100747.88
2022-10-05T14:10:04.660Z,100742.78
2022-10-05T14:12:40.279Z,100731.75
2022-10-05T14:15:22.279Z,100727.91
2022-10-05T14:17:52.752Z,100718.47
2022-10-05T14:20:27.099Z,100725.41
2022-10-05T14:22:59.104Z,100715.44
2022-10-05T14:25:28.792Z,100712.81
2022-10-05T14:28:04.985Z,100709.91
2022-10-05T14:30:35.101Z,100715.94
2022-10-05T14:33:13.387Z,100711.50
2022-10-05T14:35:52.674Z,100704.16
2022-10-05T14:38:25.739Z,100691.56
2022-10-05T14:41:08.763Z,100690.34
2022-10-05T14:43:41.555Z,100681.25
2022-10-05T14:46:27.238Z,100679.41
2022-10-05T14:49:14.066Z,100675.31
2022-10-05T14:51:44.282Z,100663.66
2022-10-05T14:54:34.960Z,100663.00
2022-10-05T14:57:10.118Z,100658.59
2022-10-05T15:00:11.390Z,100652.41
2022-10-05T15:02:52.587Z,100659.13
2022-10-05T15:05:24.788Z,100656.25
2022-10-05T15:07:57.210Z,100642.59
2022-10-05T15:10:31.214Z,100637.03
2022-10-05T15:13:08.047Z,100641.56
2022-10-05T15:15:47.264Z,100632.78
2022-10-05T15:18:21.635Z,100626.94
2022-10-05T15:20:54.139Z,100627.28
2022-10-05T15:23:26.480Z,100622.75
2022-10-05T15:26:01.310Z,100619.66
2022-10-05T15:28:35.815Z,100622.19
2022-10-05T15:31:11.378Z,100622.94
2022-10-05T15:33:43.225Z,100625.91
2022-10-05T15:36:15.026Z,100627.16
2022-10-05T15:38:51.935Z,100625.97
2022-10-05T15:41:22.781Z,100635.66
2022-10-05T15:44:02.806Z,100628.88
2022-10-05T15:46:41.344Z,100632.06
2022-10-05T15:49:23.256Z,100629.97
2022-10-05T15:51:58.581Z,100617.22
2022-10-05T15:54:45.824Z,100625.00
2022-10-05T15:57:21.040Z,100621.53
2022-10-05T15:59:58.586Z,100623.88
2022-10-05T16:02:33.929Z,100627.16
2022-10-05T16:05:09.195Z,100628.88
2022-10-05T16:07:54.765Z,100633.88
2022-10-05T16:10:25.166Z,100635.50
2022-10-05T16:13:02.347Z,100628.03
2022-10-05T16:15:34.067Z,100630.94
2022-10-05T16:18:18.303Z,100634.44
2022-10-05T16:20:51.061Z,100642.81
2022-10-05T16:23:26.394Z,100639.06
2022-10-05T16:26:01.211Z,100635.06
2022-10-05T16:28:38.343Z,100639.00
2022-10-05T16:31:11.411Z,100641.66
2022-10-05T16:33:54.572Z,100633.47
2022-10-05T16:36:31.891Z,100647.09
2022-10-05T16:39:03.922Z,100644.31
2022-10-05T16:41:35.033Z,100634.34
2022-10-05T16:44:09.681Z,100639.59
2022-10-05T16:46:41.919Z,100647.81
2022-10-05T16:49:18.844Z,100648.38
2022-10-05T16:51:52.237Z,100642.16
2022-10-05T16:54:22.616Z,100650.56
2022-10-05T16:56:54.184Z,100661.84
2022-10-05T16:59:59.494Z,100671.44
2022-10-05T17:02:37.122Z,100679.94
2022-10-05T17:05:16.982Z,100687.19
2022-10-05T17:08:08.628Z,100678.72
2022-10-05T17:10:46.135Z,100684.75
2022-10-05T17:13:27.896Z,100686.31
2022-10-05T17:16:04.095Z,100689.00
2022-10-05T17:19:11.376Z,100698.59
2022-10-05T17:21:44.522Z,100696.09
2022-10-05T17:24:26.240Z,100704.06
2022-10-05T17:26:59.339Z,100712.28
2022-10-05T17:29:30.598Z,100714.88
2022-10-05T17:32:12.885Z,100721.53
2022-10-05T17:34:42.580Z,100721.53
2022-10-05T17:37:35.624Z,100723.06
2022-10-05T17:40:30.143Z,100733.16
2022-10-05T17:43:02.985Z,100737.34
2022-10-05T17:45:57.533Z,100741.31
2022-10-05T17:49:08.480Z,100737.47
2022-10-05T17:52:14.799Z,100746.00
2022-10-05T17:55:30.043Z,100756.63
2022-10-05T17:58:03.066Z,100757.94
2022-10-05T18:00:43.648Z,100760.28
2022-10-05T18:03:35.668Z,100767.38
2022-10-05T18:06:33.714Z,100768.34
2022-10-05T18:09:33.599Z,100769.19
2022-10-05T18:12:15.667Z,100776.16
2022-10-05T18:15:02.761Z,100772.94
2022-10-05T18:17:45.312Z,100770.84
2022-10-05T18:20:21.745Z,100776.19
2022-10-05T18:22:52.956Z,100784.72
2022-10-05T18:25:26.249Z,100789.00
2022-10-05T18:28:08.336Z,100793.78
2022-10-05T18:30:47.406Z,100795.88
2022-10-05T18:33:44.903Z,100795.88
2022-10-05T18:36:22.513Z,100798.56
2022-10-05T18:38:55.400Z,100789.59
2022-10-05T18:41:31.516Z,100797.63
2022-10-05T18:44:06.881Z,100798.13
2022-10-05T18:46:44.778Z,100798.34
2022-10-05T18:49:25.708Z,100808.28
2022-10-05T18:51:57.752Z,100808.75
2022-10-05T18:54:38.567Z,100815.25
2022-10-05T18:57:27.650Z,100819.78
2022-10-05T18:59:59.440Z,100829.47
2022-10-05T19:02:33.693Z,100832.38
2022-10-05T19:05:29.269Z,100839.34
2022-10-05T19:08:04.055Z,100847.03
2022-10-05T19:10:37.298Z,100854.84
2022-10-05T19:13:19.216Z,100851.69
2022-10-05T19:15:52.217Z,100852.41
2022-10-05T19:18:43.487Z,100853.69
2022-10-05T19:21:17.157Z,100854.72
2022-10-05T19:24:08.676Z,100859.50
2022-10-05T19:26:50.046Z,100872.06
2022-10-05T19:29:27.238Z,100868.78
2022-10-05T19:31:58.272Z,100872.06
2022-10-05T19:34:34.173Z,100869.97
2022-10-05T19:37:08.067Z,100876.59
2022-10-05T19:39:42.301Z,100877.41
2022-10-05T19:42:24.770Z,100882.31
2022-10-05T19:45:01.750Z,100885.78
2022-10-05T19:47:41.255Z,100890.56
2022-10-05T19:50:28.525Z,100888.94
2022-10-05T19:53:07.444Z,100899.41
2022-10-05T19:55:39.664Z,100897.78
2022-10-05T19:58:20.937Z,100905.25
2022-10-05T20:01:01.097Z,100913.03
2022-10-05T20:03:31.422Z,100913.47
2022-10-05T20:06:04.207Z,100927.66
2022-10-05T20:08:40.376Z,100932.16
2022-10-05T20:11:11.790Z,100920.19
2022-10-05T20:13:42.120Z,100928.09
2022-10-05T20:16:32.837Z,100937.97
2022-10-05T20:19:15.277Z,100941.06
2022-10-05T20:21:49.708Z,100946.69
2022-10-05T20:24:20.386Z,100959.22
2022-10-05T20:27:03.876Z,100974.44
2022-10-05T20:29:35.585Z,100968.16
2022-10-05T20:32:08.791Z,100972.94
2022-10-05T20:34:40.920Z,100976.63
2022-10-05T20:37:13.402Z,100972.06
2022-10-05T20:39:42.995Z,100966.72
2022-10-05T20:42:12.703Z,100975.34
2022-10-05T20:44:42.306Z,100985.44
2022-10-05T20:47:11.907Z,100993.91
2022-10-05T20:49:42.231Z,100988.56
2022-10-05T20:52:15.841Z,100991.91
2022-10-05T20:57:15.903Z,100996.09
2022-10-05T20:59:45.855Z,100998.16
2022-10-05T21:02:15.417Z,101008.84
2022-10-05T21:04:47.656Z,101006.03
2022-10-05T21:07:21.777Z,101008.94
2022-10-05T21:09:51.713Z,101007.31
2022-10-05T21:12:21.268Z,101005.31
2022-10-05T21:14:52.703Z,101011.31
2022-10-05T21:17:22.863Z,101011.19
2022-10-05T21:19:52.696Z,101009.97
2022-10-05T21:22:25.158Z,101015.75
2022-10-05T21:24:55.280Z,101015.81
2022-10-05T21:27:24.976Z,101016.63
2022-10-05T21:29:54.514Z,101010.47
2022-10-05T21:32:24.068Z,101001.94
2022-10-05T21:34:53.650Z,101012.88
2022-10-05T21:37:25.810Z,101019.22
2022-10-05T21:39:55.328Z,101013.88
2022-10-05T21:42:24.871Z,101021.09
2022-10-05T21:44:54.444Z,101022.72
2022-10-05T21:47:23.987Z,101029.09
2022-10-05T21:49:53.603Z,101027.09
2022-10-05T21:52:25.807Z,101024.88
2022-10-05T21:54:55.343Z,101033.31
2022-10-05T21:57:24.882Z,101034.78
2022-10-05T21:59:54.458Z,101043.03
2022-10-05T22:02:24.000Z,101046.13
2022-10-05T22:04:53.519Z,101044.28
2022-10-05T22:07:25.678Z,101048.22
2022-10-05T22:09:55.213Z,101041.50
2022-10-05T22:12:26.460Z,101045.00
2022-10-05T22:14:55.993Z,101047.91
2022-10-05T22:17:28.100Z,101045.66
2022-10-05T22:19:57.761Z,101057.59
2022-10-05T22:22:30.001Z,101057.78
2022-10-05T22:24:59.533Z,101060.47
2022-10-05T22:27:30.741Z,101060.91
2022-10-05T22:30:01.177Z,101057.88
2022-10-05T22:32:30.686Z,101075.94
2022-10-05T22:35:00.222Z,101073.94
2022-10-05T22:37:37.783Z,101071.25
2022-10-05T22:40:07.988Z,101069.63
2022-10-05T22:42:38.942Z,101070.50
2022-10-05T22:45:10.119Z,101073.75
2022-10-05T22:47:39.658Z,101077.47
2022-10-05T22:50:10.706Z,101082.44
2022-10-05T22:52:42.580Z,101082.25
2022-10-05T22:55:12.595Z,101086.19
2022-10-05T22:57:42.141Z,101094.56
2022-10-05T23:00:13.194Z,101097.88
2022-10-05T23:02:42.762Z,101093.59
2022-10-05T23:05:13.352Z,101097.72
2022-10-05T23:07:46.912Z,101090.97
2022-10-05T23:10:17.544Z,101098.34
2022-10-05T23:12:47.301Z,101107.16
2022-10-05T23:15:16.803Z,101109.66
2022-10-05T23:17:46.338Z,101100.63
2022-10-05T23:20:15.842Z,101106.19
2022-10-05T23:22:48.023Z,101109.47
2022-10-05T23:25:17.918Z,101097.19
2022-10-05T23:27:47.465Z,101098.00
2022-10-05T23:30:16.983Z,101103.75
2022-10-05T23:32:47.107Z,101093.50
2022-10-05T23:35:16.610Z,101095.56
2022-10-05T23:37:48.754Z,101103.16
2022-10-05T23:40:18.327Z,101107.66
2022-10-05T23:42:47.984Z,101111.16
2022-10-05T23:45:17.818Z,101118.72
2022-10-05T23:47:47.346Z,101123.84
2022-10-05T23:50:17.524Z,101117.50
2022-10-05T23:52:49.719Z,101118.34
2022-10-05T23:55:19.469Z,101118.56
2022-10-05T23:57:49.012Z,101131.50
